Map

Track Data

SID SEASON NUMBER BASIN SUBBASIN NAME ISO_TIME NATURE LAT LON WMO_WIND WMO_PRES WMO_AGENCY TRACK_TYPE DIST2LAND LANDFALL IFLAG USA_AGENCY USA_ATCF_ID USA_LAT USA_LON USA_RECORD USA_STATUS USA_WIND USA_PRES USA_SSHS USA_R34_NE USA_R34_SE USA_R34_SW USA_R34_NW USA_R50_NE USA_R50_SE USA_R50_SW USA_R50_NW USA_R64_NE USA_R64_SE USA_R64_SW USA_R64_NW USA_POCI USA_ROCI USA_RMW USA_EYE TOKYO_LAT TOKYO_LON TOKYO_GRADE TOKYO_WIND TOKYO_PRES TOKYO_R50_DIR TOKYO_R50_LONG TOKYO_R50_SHORT TOKYO_R30_DIR TOKYO_R30_LONG TOKYO_R30_SHORT TOKYO_LAND CMA_LAT CMA_LON CMA_CAT CMA_WIND CMA_PRES HKO_LAT HKO_LON HKO_CAT HKO_WIND HKO_PRES NEWDELHI_LAT NEWDELHI_LON NEWDELHI_GRADE NEWDELHI_WIND NEWDELHI_PRES NEWDELHI_CI NEWDELHI_DP NEWDELHI_POCI REUNION_LAT REUNION_LON REUNION_TYPE REUNION_WIND REUNION_PRES REUNION_TNUM REUNION_CI REUNION_RMW REUNION_R34_NE REUNION_R34_SE REUNION_R34_SW REUNION_R34_NW REUNION_R50_NE REUNION_R50_SE REUNION_R50_SW REUNION_R50_NW REUNION_R64_NE REUNION_R64_SE REUNION_R64_SW REUNION_R64_NW BOM_LAT BOM_LON BOM_TYPE BOM_WIND BOM_PRES BOM_TNUM BOM_CI BOM_RMW BOM_R34_NE BOM_R34_SE BOM_R34_SW BOM_R34_NW BOM_R50_NE BOM_R50_SE BOM_R50_SW BOM_R50_NW BOM_R64_NE BOM_R64_SE BOM_R64_SW BOM_R64_NW BOM_ROCI BOM_POCI BOM_EYE BOM_POS_METHOD BOM_PRES_METHOD NADI_LAT NADI_LON NADI_CAT NADI_WIND NADI_PRES WELLINGTON_LAT WELLINGTON_LON WELLINGTON_WIND WELLINGTON_PRES DS824_LAT DS824_LON DS824_STAGE DS824_WIND DS824_PRES TD9636_LAT TD9636_LON TD9636_STAGE TD9636_WIND TD9636_PRES TD9635_LAT TD9635_LON TD9635_WIND TD9635_PRES TD9635_ROCI NEUMANN_LAT NEUMANN_LON NEUMANN_CLASS NEUMANN_WIND NEUMANN_PRES MLC_LAT MLC_LON MLC_CLASS MLC_WIND MLC_PRES USA_GUST BOM_GUST BOM_GUST_PER REUNION_GUST REUNION_GUST_PER USA_SEAHGT USA_SEARAD_NE USA_SEARAD_SE USA_SEARAD_SW USA_SEARAD_NW STORM_SPEED STORM_DIR
1955343S17118 1956 99 SI WA NOT_NAMED 1955-12-08 23:00:00 NR -17.1000 118.100 main 351 351 __________O___ -1 -17.1000 118.100 7 1 0
1955343S17118 1956 99 SI WA NOT_NAMED 1955-12-09 00:00:00 TS -17.1072 118.084 main 351 351 O________OP___ jtwc_sh SH031956 -17.1000 118.100 -1 -17.1000 118.100 TC -17.1145 118.067 7 2 351
1955343S17118 1956 99 SI WA NOT_NAMED 1955-12-09 01:00:00 TS -17.0448 118.071 1002 bom main 362 355 P_____O__PP___ SH031956 -17.1178 118.067 -1 -16.5000 118.200 1002 -17.1178 118.067 TC -17.1290 118.034 7 2 306
1955343S17118 1956 99 SI WA NOT_NAMED 1955-12-09 03:00:00 TS -17.0611 118.012 main 355 355 P_____P__PP___ SH031956 -17.1525 118.000 -1 -16.5918 118.134 -17.1525 118.000 TC -17.1588 117.969 7 2 247
1955343S17118 1956 99 SI WA NOT_NAMED 1955-12-09 06:00:00 TS -17.1076 117.919 main 358 358 O_____P__OP___ jtwc_sh SH031956 -17.2000 117.900 -1 -16.7294 118.034 -17.2000 117.900 TC -17.2064 117.869 7 2 242
1955343S17118 1956 99 SI WA NOT_NAMED 1955-12-09 09:00:00 TS -17.1530 117.826 main 352 352 P_____P__PP___ SH031956 -17.2425 117.800 -1 -16.8670 117.934 -17.2425 117.800 TC -17.2599 117.768 7 2 238
1955343S17118 1956 99 SI WA NOT_NAMED 1955-12-09 11:00:00 TS -17.2035 117.759 main 352 352 P_____P__PO___ SH031956 -17.2776 117.733 -1 -16.9587 117.868 -17.2776 117.733 TC -17.3000 117.700 7 2 231
1955343S17118 1956 99 SI WA NOT_NAMED 1955-12-09 12:00:00 TS -17.2316 117.725 main 356 346 O_____P__OP___ jtwc_sh SH031956 -17.3000 117.700 -1 -17.0046 117.835 -17.3000 117.700 TC -17.3216 117.665 7 3 226
1955343S17118 1956 99 SI WA NOT_NAMED 1955-12-09 15:00:00 TS -17.3335 117.624 main 350 339 P_____P__PP___ SH031956 -17.4000 117.600 -1 -17.1421 117.734 -17.4000 117.600 TC -17.3921 117.561 7 3 223
1955343S17118 1956 99 SI WA NOT_NAMED 1955-12-09 18:00:00 TS -17.4370 117.523 main 341 330 O_____P__OP___ jtwc_sh SH031956 -17.5000 117.500 -1 -17.2795 117.634 -17.5000 117.500 TC -17.4684 117.459 7 3 226
1955343S17118 1956 99 SI WA NOT_NAMED 1955-12-09 21:00:00 TS -17.5161 117.424 main 332 321 P_____P__PP___ SH031956 -17.5500 117.400 -1 -17.4169 117.534 -17.5500 117.400 TC -17.5474 117.361 7 2 231
1955343S17118 1956 99 SI WA NOT_NAMED 1955-12-09 23:00:00 TS -17.5672 117.358 main 321 321 P_____P__PO___ SH031956 -17.5802 117.333 -1 -17.5085 117.467 -17.5802 117.333 TC -17.6000 117.300 7 2 228
1955343S17118 1956 99 SI WA NOT_NAMED 1955-12-10 00:00:00 TS -17.5948 117.331 main 324 324 O_____P__OP___ jtwc_sh SH031956 -17.6000 117.300 -1 -17.5542 117.434 -17.6000 117.300 TC -17.6238 117.272 7 3 222
1955343S17118 1956 99 SI WA NOT_NAMED 1955-12-10 01:00:00 TS -17.6259 117.294 995 bom main 324 316 P_____O__PP___ SH031956 -17.6302 117.264 -1 -17.6000 117.400 995 4 -17.6302 117.264 TC -17.6474 117.244 7 3 240
1955343S17118 1956 99 SI WA NOT_NAMED 1955-12-10 03:00:00 TS -17.6774 117.182 main 316 316 P_____P__PP___ SH031956 -17.7000 117.193 -1 -17.6344 117.200 -17.7000 117.193 TC -17.6945 117.192 7 4 245
1955343S17118 1956 99 SI WA NOT_NAMED 1955-12-10 06:00:00 TS -17.7510 117.009 main 312 312 O_____P__OP___ jtwc_sh SH031956 -17.8000 117.100 -1 -17.6857 116.901 -17.8000 117.100 TC -17.7670 117.118 7 3 247
1955343S17118 1956 99 SI WA NOT_NAMED 1955-12-10 09:00:00 TS -17.8068 116.857 main 313 313 P_____P__PP___ SH031956 -17.8500 117.050 -1 -17.7366 116.601 -17.8500 117.050 TC -17.8443 117.047 7 3 249
1955343S17118 1956 99 SI WA NOT_NAMED 1955-12-10 11:00:00 TS -17.8435 116.758 main 313 302 P_____P__PO___ SH031956 -17.8802 117.020 -1 -17.7702 116.401 -17.8802 117.020 TC -17.9000 117.000 7 4 253
1955343S17118 1956 99 SI WA NOT_NAMED 1955-12-10 12:00:00 TS -17.8599 116.673 main 302 302 O_____P__OP___ jtwc_sh SH031956 -17.9000 117.000 -1 -17.7870 116.301 -17.9000 117.000 TC -17.9294 116.976 7 5 255
1955343S17118 1956 99 SI WA NOT_NAMED 1955-12-10 15:00:00 TS -17.9253 116.445 main 303 293 P_____P__PP___ SH031956 -17.9875 116.913 -1 -17.8369 116.001 -17.9875 116.913 TC -18.0235 116.903 7 5 257
1955343S17118 1956 99 SI WA NOT_NAMED 1955-12-10 18:00:00 TS -17.9791 116.122 main 297 297 O_____P__OP___ jtwc_sh SH031956 -18.1000 116.800 -1 -17.8864 115.701 -18.1000 116.800 TC -18.1242 116.827 7 7 264
1955343S17118 1956 99 SI WA NOT_NAMED 1955-12-10 21:00:00 TS -18.0060 115.697 main 309 309 ______P___P___ SH031956 -1 -17.9354 115.401 TC -18.2290 116.751 7 8 266
1955343S17118 1956 99 SI WA NOT_NAMED 1955-12-10 23:00:00 TS -18.0285 115.449 main 321 321 ______P___O___ SH031956 -1 -17.9678 115.200 TC -18.3000 116.700 7 11 272
1955343S17118 1956 99 SI WA NOT_NAMED 1955-12-11 00:00:00 TS -17.9893 115.100 main 335 335 ______P_______ -1 -17.9839 115.100 7 13 274
1955343S17118 1956 99 SI WA NOT_NAMED 1955-12-11 01:00:00 NR -18.0000 115.000 1000 bom main 341 ______O_______ -1 -18.0000 115.000 1000 7 6 264

About IBTrACS Database

This database is a web-friendly format of International Best Track Archive for Climate Stewardship (IBTrACS), a global best track data archive curated by NOAA dating back to 1842.

Updated: 2021-12-06